Time;durP1;ratioP1;P1;durP2;ratioP2;P2;SDS_P1;SDS_P2;PMS_P1;PMS_P2;Temp;Humidity;BMP_temperature;BMP_pressure;BME280_temperature;BME280_humidity;BME280_pressure;Samples;Min_cycle;Max_cycle;Signal;HPM_P1;HPM_P2
2023/07/15 00:03:58;;;;;;;11.35;7.25;;;;;;;;;;10503636;28;20063;-74
2023/07/15 00:08:58;;;;;;;14.37;7.17;;;;;;;;;;10504393;28;20077;-74
2023/07/15 00:13:59;;;;;;;10.77;7.47;;;;;;;;;;10502785;28;20036;-75
2023/07/15 00:19:00;;;;;;;14.52;8.35;;;;;;;;;;10506555;28;20044;-74
2023/07/15 00:24:00;;;;;;;17.70;9.40;;;;;;;;;;10503772;28;20016;-74
2023/07/15 00:29:03;;;;;;;11.75;7.93;;;;;;;;;;10503418;28;20024;-74
2023/07/15 00:34:04;;;;;;;14.20;8.75;;;;;;;;;;10503285;28;20052;-73
2023/07/15 00:39:05;;;;;;;13.77;8.88;;;;;;;;;;10508327;28;20031;-73
2023/07/15 00:44:14;;;;;;;14.75;10.25;;;;;;;;;;10502488;28;20337;-75
2023/07/15 00:49:22;;;;;;;17.65;9.70;;;;;;;;;;10506684;28;20366;-73
2023/07/15 00:54:22;;;;;;;13.38;9.40;;;;;;;;;;10501472;28;20048;-73
2023/07/15 00:59:23;;;;;;;17.60;9.63;;;;;;;;;;10502187;28;20303;-73
2023/07/15 01:04:23;;;;;;;12.93;8.65;;;;;;;;;;10501555;28;20013;-73
2023/07/15 01:09:24;;;;;;;15.52;9.55;;;;;;;;;;10500494;28;20311;-73
2023/07/15 01:14:26;;;;;;;16.35;8.25;;;;;;;;;;10500644;28;20020;-74
2023/07/15 01:19:27;;;;;;;12.45;8.38;;;;;;;;;;10500917;28;20031;-73
2023/07/15 01:24:27;;;;;;;14.05;8.85;;;;;;;;;;10499530;28;20337;-72
2023/07/15 01:29:28;;;;;;;19.73;9.77;;;;;;;;;;10501579;28;20028;-75
2023/07/15 01:34:30;;;;;;;24.10;9.50;;;;;;;;;;10499673;28;20119;-74
2023/07/15 01:39:31;;;;;;;14.38;9.23;;;;;;;;;;10506035;28;20254;-75
2023/07/15 01:44:31;;;;;;;18.83;9.23;;;;;;;;;;10500930;28;20370;-75
2023/07/15 01:49:32;;;;;;;11.55;8.50;;;;;;;;;;10500636;28;20078;-74
2023/07/15 01:54:32;;;;;;;14.25;8.52;;;;;;;;;;10499227;28;20037;-73
2023/07/15 01:59:32;;;;;;;13.88;9.20;;;;;;;;;;10500561;28;20126;-74
2023/07/15 02:04:32;;;;;;;14.02;9.15;;;;;;;;;;10499310;28;20099;-74
2023/07/15 02:09:34;;;;;;;14.68;8.40;;;;;;;;;;10500332;28;20180;-74
2023/07/15 02:14:36;;;;;;;16.55;9.10;;;;;;;;;;10500125;28;20024;-73
2023/07/15 02:19:37;;;;;;;17.00;9.30;;;;;;;;;;10500098;28;20028;-74
2023/07/15 02:24:37;;;;;;;18.80;10.02;;;;;;;;;;10500258;28;20016;-74
2023/07/15 02:29:38;;;;;;;18.03;9.10;;;;;;;;;;10500087;28;20299;-75
2023/07/15 02:34:38;;;;;;;17.88;9.30;;;;;;;;;;10503699;28;20035;-74
2023/07/15 02:39:38;;;;;;;14.27;9.55;;;;;;;;;;10507616;28;20035;-75
2023/07/15 02:44:38;;;;;;;13.40;8.73;;;;;;;;;;10507841;28;20224;-75
2023/07/15 02:49:39;;;;;;;17.02;9.68;;;;;;;;;;10507303;28;20020;-75
2023/07/15 02:54:40;;;;;;;15.65;8.75;;;;;;;;;;10506852;28;20342;-74
2023/07/15 02:59:40;;;;;;;21.02;10.60;;;;;;;;;;10506930;28;20089;-74
2023/07/15 03:04:40;;;;;;;15.02;8.55;;;;;;;;;;10506793;28;20020;-75
2023/07/15 03:09:41;;;;;;;15.60;9.07;;;;;;;;;;10506678;28;20036;-75
2023/07/15 03:14:42;;;;;;;16.53;8.47;;;;;;;;;;10507328;28;20048;-74
2023/07/15 03:19:42;;;;;;;18.23;10.10;;;;;;;;;;10505361;28;20220;-74
2023/07/15 03:24:42;;;;;;;16.70;9.77;;;;;;;;;;10506190;28;20424;-74
2023/07/15 03:29:43;;;;;;;13.48;8.35;;;;;;;;;;10505888;28;20020;-74
2023/07/15 03:34:43;;;;;;;18.83;9.68;;;;;;;;;;10505922;28;20308;-74
2023/07/15 03:39:43;;;;;;;17.33;9.18;;;;;;;;;;10505318;28;20028;-76
2023/07/15 03:44:43;;;;;;;13.90;8.85;;;;;;;;;;10504458;28;20017;-75
2023/07/15 03:49:44;;;;;;;14.98;9.32;;;;;;;;;;10505133;28;20035;-75
2023/07/15 03:54:44;;;;;;;16.07;9.03;;;;;;;;;;10505006;28;20051;-74
2023/07/15 03:59:44;;;;;;;13.32;8.15;;;;;;;;;;10504304;28;20091;-75
2023/07/15 04:04:45;;;;;;;15.35;8.15;;;;;;;;;;10504550;28;20385;-74
2023/07/15 04:09:45;;;;;;;19.25;10.10;;;;;;;;;;10504938;28;20030;-74
2023/07/15 04:14:45;;;;;;;14.93;8.77;;;;;;;;;;10503973;28;20028;-75
2023/07/15 04:19:46;;;;;;;14.60;9.90;;;;;;;;;;10502466;28;20047;-75
2023/07/15 04:24:46;;;;;;;14.27;10.48;;;;;;;;;;10503896;28;20016;-74
2023/07/15 04:29:46;;;;;;;13.75;9.05;;;;;;;;;;10503331;28;20115;-75
2023/07/15 04:34:50;;;;;;;20.33;9.70;;;;;;;;;;10501708;28;20043;-75
2023/07/15 04:39:50;;;;;;;18.02;8.93;;;;;;;;;;10502880;28;20023;-73
2023/07/15 04:44:50;;;;;;;15.10;8.57;;;;;;;;;;10502846;28;20092;-73
2023/07/15 04:49:50;;;;;;;15.73;8.80;;;;;;;;;;10502743;28;20042;-74
2023/07/15 04:54:51;;;;;;;16.08;9.02;;;;;;;;;;10501811;28;20056;-73
2023/07/15 04:59:52;;;;;;;26.77;9.13;;;;;;;;;;10501856;28;20020;-73
2023/07/15 05:04:52;;;;;;;16.20;9.02;;;;;;;;;;10502069;28;20017;-75
2023/07/15 05:09:54;;;;;;;30.10;9.23;;;;;;;;;;10502211;28;20306;-73
2023/07/15 05:14:54;;;;;;;16.60;8.27;;;;;;;;;;10501746;28;20021;-75
2023/07/15 05:19:54;;;;;;;18.00;8.93;;;;;;;;;;10501301;28;20215;-74
2023/07/15 05:24:55;;;;;;;15.50;7.65;;;;;;;;;;10500367;28;20034;-74
2023/07/15 05:29:55;;;;;;;14.65;8.27;;;;;;;;;;10501461;28;20027;-73
2023/07/15 05:34:55;;;;;;;21.40;8.15;;;;;;;;;;10500940;28;20063;-73
2023/07/15 05:39:55;;;;;;;13.60;8.57;;;;;;;;;;10500727;28;20017;-74
2023/07/15 05:44:56;;;;;;;19.73;8.88;;;;;;;;;;10500763;28;20016;-73
2023/07/15 05:49:56;;;;;;;15.57;8.48;;;;;;;;;;10500774;28;20028;-74
2023/07/15 05:54:56;;;;;;;23.23;8.38;;;;;;;;;;10500619;28;20258;-74
2023/07/15 05:59:58;;;;;;;16.67;8.40;;;;;;;;;;10500394;28;20017;-73
2023/07/15 06:04:59;;;;;;;19.10;8.88;;;;;;;;;;10498955;28;20326;-74
2023/07/15 06:09:59;;;;;;;16.33;7.63;;;;;;;;;;10505383;28;20016;-73
2023/07/15 06:14:59;;;;;;;98.95;14.68;;;;;;;;;;10509072;28;20287;-74
2023/07/15 06:19:59;;;;;;;18.87;7.37;;;;;;;;;;10507567;28;20149;-74
2023/07/15 06:25:00;;;;;;;13.27;7.20;;;;;;;;;;10507748;28;20291;-73
2023/07/15 06:30:00;;;;;;;14.77;5.97;;;;;;;;;;10508018;28;20043;-73
2023/07/15 06:35:00;;;;;;;11.93;6.57;;;;;;;;;;10507912;28;20020;-74
2023/07/15 06:40:01;;;;;;;19.35;6.22;;;;;;;;;;10507398;28;20020;-73
2023/07/15 06:45:01;;;;;;;16.60;8.13;;;;;;;;;;10507548;28;20016;-74
2023/07/15 06:50:01;;;;;;;26.85;7.45;;;;;;;;;;10507360;28;20012;-73
2023/07/15 06:55:02;;;;;;;13.83;6.40;;;;;;;;;;10507119;28;20104;-73
2023/07/15 07:00:04;;;;;;;9.03;6.03;;;;;;;;;;10505225;28;20361;-73
2023/07/15 07:05:04;;;;;;;11.93;5.78;;;;;;;;;;10516176;28;20259;-73
2023/07/15 07:10:05;;;;;;;14.18;5.90;;;;;;;;;;10506465;28;20326;-74
2023/07/15 07:15:05;;;;;;;8.02;5.22;;;;;;;;;;10504849;28;20024;-72
2023/07/15 07:20:06;;;;;;;8.27;5.53;;;;;;;;;;10503692;28;20326;-74
2023/07/15 07:25:07;;;;;;;19.15;5.82;;;;;;;;;;10506368;28;20024;-73
2023/07/15 07:30:08;;;;;;;8.45;5.15;;;;;;;;;;10504167;28;20017;-73
2023/07/15 07:35:08;;;;;;;11.20;5.77;;;;;;;;;;10506937;28;20088;-74
2023/07/15 07:40:12;;;;;;;9.88;5.68;;;;;;;;;;10510330;28;20369;-74
2023/07/15 07:45:13;;;;;;;13.57;4.65;;;;;;;;;;10503698;28;20050;-74
2023/07/15 07:50:13;;;;;;;7.60;4.80;;;;;;;;;;10505172;28;20043;-73
2023/07/15 07:55:14;;;;;;;10.67;4.40;;;;;;;;;;10505754;28;20058;-73
2023/07/15 08:00:14;;;;;;;6.73;3.83;;;;;;;;;;10505027;28;20222;-73
2023/07/15 08:05:14;;;;;;;6.50;4.13;;;;;;;;;;10504587;28;20311;-73
2023/07/15 08:10:15;;;;;;;9.85;4.25;;;;;;;;;;10503277;28;20080;-73
2023/07/15 08:15:15;;;;;;;8.40;4.50;;;;;;;;;;10504231;28;20087;-72
2023/07/15 08:20:15;;;;;;;11.95;5.55;;;;;;;;;;10503886;28;20219;-73
2023/07/15 08:25:16;;;;;;;8.27;4.80;;;;;;;;;;10503672;28;20017;-73
2023/07/15 08:30:16;;;;;;;8.95;5.20;;;;;;;;;;10503462;28;20032;-74
2023/07/15 08:35:16;;;;;;;9.40;4.70;;;;;;;;;;10503314;28;20020;-74
2023/07/15 08:40:17;;;;;;;12.65;5.47;;;;;;;;;;10503173;28;20040;-74
2023/07/15 08:45:17;;;;;;;10.37;5.03;;;;;;;;;;10501629;28;20013;-73
2023/07/15 08:50:18;;;;;;;14.10;4.97;;;;;;;;;;10502702;28;20013;-72
2023/07/15 08:55:18;;;;;;;11.60;5.30;;;;;;;;;;10502403;28;20052;-73
2023/07/15 09:00:19;;;;;;;9.33;4.90;;;;;;;;;;10501104;28;20334;-73
2023/07/15 09:05:20;;;;;;;10.23;4.80;;;;;;;;;;10501773;28;20040;-73
2023/07/15 09:10:21;;;;;;;9.77;5.18;;;;;;;;;;10502300;28;20025;-73
2023/07/15 09:15:21;;;;;;;10.40;4.73;;;;;;;;;;10501576;28;20338;-73
2023/07/15 09:20:22;;;;;;;8.73;5.07;;;;;;;;;;10500961;28;20659;-74
2023/07/15 09:25:23;;;;;;;8.90;5.40;;;;;;;;;;10501498;28;20404;-73
2023/07/15 09:30:24;;;;;;;11.88;5.40;;;;;;;;;;10501632;28;20059;-74
2023/07/15 09:35:34;;;;;;;9.17;5.60;;;;;;;;;;10499510;28;20016;-73
2023/07/15 09:40:41;;;;;;;11.43;5.38;;;;;;;;;;10500895;28;20028;-73
2023/07/15 09:45:41;;;;;;;7.85;4.85;;;;;;;;;;10499234;28;20058;-73
2023/07/15 09:50:42;;;;;;;10.88;5.68;;;;;;;;;;10500749;28;20020;-73
2023/07/15 09:55:43;;;;;;;16.80;5.78;;;;;;;;;;10501795;28;20044;-74
2023/07/15 10:00:46;;;;;;;9.88;5.20;;;;;;;;;;10500496;28;20069;-73
2023/07/15 10:05:47;;;;;;;8.73;5.07;;;;;;;;;;10499149;28;20027;-73
2023/07/15 10:10:48;;;;;;;15.48;5.82;;;;;;;;;;10499255;28;20028;-73
2023/07/15 10:15:48;;;;;;;12.30;4.68;;;;;;;;;;10500021;28;20050;-75
2023/07/15 10:20:55;;;;;;;9.67;4.43;;;;;;;;;;10500279;28;20095;-74
2023/07/15 10:25:59;;;;;;;12.25;5.10;;;;;;;;;;10499954;28;20226;-74
2023/07/15 10:31:11;;;;;;;10.90;5.07;;;;;;;;;;10498835;28;20253;-72
2023/07/15 10:36:11;;;;;;;13.75;6.05;;;;;;;;;;10498510;28;20118;-73
2023/07/15 10:41:13;;;;;;;8.18;5.57;;;;;;;;;;10499387;28;20016;-72
2023/07/15 10:46:17;;;;;;;9.07;5.55;;;;;;;;;;10499569;28;20020;-73
2023/07/15 10:51:17;;;;;;;11.80;5.27;;;;;;;;;;10499409;28;20222;-73
2023/07/15 10:56:17;;;;;;;10.88;5.50;;;;;;;;;;10502435;28;20040;-73
2023/07/15 11:01:18;;;;;;;8.75;5.53;;;;;;;;;;10506888;28;20241;-73
2023/07/15 11:06:19;;;;;;;12.00;6.88;;;;;;;;;;10507001;28;20025;-74
2023/07/15 11:11:22;;;;;;;9.88;7.22;;;;;;;;;;10505297;28;20023;-74
2023/07/15 11:16:23;;;;;;;12.82;6.55;;;;;;;;;;10506824;28;20024;-74
2023/07/15 11:21:23;;;;;;;16.00;6.77;;;;;;;;;;10506331;28;20028;-71
2023/07/15 11:26:24;;;;;;;13.88;6.45;;;;;;;;;;10505720;28;20008;-72
2023/07/15 11:31:26;;;;;;;10.73;6.75;;;;;;;;;;10506202;28;20044;-73
2023/07/15 11:36:26;;;;;;;12.52;7.20;;;;;;;;;;10507328;28;20025;-74
2023/07/15 11:41:26;;;;;;;14.55;6.65;;;;;;;;;;10505312;28;20031;-74
2023/07/15 11:46:28;;;;;;;14.50;6.80;;;;;;;;;;10505277;28;20222;-74
2023/07/15 11:51:30;;;;;;;9.30;6.47;;;;;;;;;;10503847;28;20211;-74
2023/07/15 11:56:40;;;;;;;14.05;6.32;;;;;;;;;;10504694;28;20024;-74
2023/07/15 12:01:40;;;;;;;13.15;6.85;;;;;;;;;;10504532;28;20035;-75
2023/07/15 12:06:47;;;;;;;12.47;6.70;;;;;;;;;;10503011;28;20310;-73
2023/07/15 12:11:49;;;;;;;15.43;7.25;;;;;;;;;;10503371;28;20295;-73
2023/07/15 12:16:53;;;;;;;14.50;7.95;;;;;;;;;;10503611;28;20028;-74
2023/07/15 12:21:53;;;;;;;13.10;7.18;;;;;;;;;;10506453;28;20029;-74
2023/07/15 12:26:53;;;;;;;15.27;7.27;;;;;;;;;;10502465;28;20087;-75
2023/07/15 12:31:54;;;;;;;11.75;7.10;;;;;;;;;;10503346;28;20061;-74
2023/07/15 12:36:56;;;;;;;17.95;7.00;;;;;;;;;;10501699;28;20055;-74
2023/07/15 12:41:56;;;;;;;15.43;8.00;;;;;;;;;;10516860;28;20042;-74
2023/07/15 12:46:56;;;;;;;13.25;7.53;;;;;;;;;;10502754;28;20114;-74
2023/07/15 12:51:57;;;;;;;12.45;7.72;;;;;;;;;;10501373;28;20275;-74
2023/07/15 12:56:57;;;;;;;10.17;5.67;;;;;;;;;;10501115;28;20262;-73
2023/07/15 13:01:57;;;;;;;14.63;7.70;;;;;;;;;;10502058;28;20021;-73
2023/07/15 13:06:58;;;;;;;13.27;8.10;;;;;;;;;;10501945;28;20008;-73
2023/07/15 13:11:58;;;;;;;17.50;7.10;;;;;;;;;;10502100;28;20329;-74
2023/07/15 13:16:58;;;;;;;10.95;7.03;;;;;;;;;;10500515;28;20020;-74
2023/07/15 13:21:59;;;;;;;11.25;7.20;;;;;;;;;;10500028;28;20108;-74
2023/07/15 13:26:59;;;;;;;12.30;7.55;;;;;;;;;;10501010;28;20021;-73
2023/07/15 13:31:59;;;;;;;13.45;7.65;;;;;;;;;;10500983;28;20039;-74
2023/07/15 13:37:00;;;;;;;16.42;8.35;;;;;;;;;;10501218;28;20258;-74
2023/07/15 13:42:00;;;;;;;18.15;8.20;;;;;;;;;;10499593;28;20187;-73
2023/07/15 13:47:01;;;;;;;11.87;6.50;;;;;;;;;;10500675;28;20025;-72
2023/07/15 13:52:01;;;;;;;13.38;6.85;;;;;;;;;;10500485;28;20044;-73
2023/07/15 13:57:01;;;;;;;10.10;6.65;;;;;;;;;;10500661;28;20043;-73
2023/07/15 14:02:02;;;;;;;14.67;6.53;;;;;;;;;;10500240;28;20352;-73
2023/07/15 14:07:02;;;;;;;17.03;8.03;;;;;;;;;;10498591;28;20184;-73
2023/07/15 14:12:03;;;;;;;14.37;6.57;;;;;;;;;;10500309;28;20293;-73
2023/07/15 14:17:04;;;;;;;15.13;6.60;;;;;;;;;;10500643;28;20052;-73
2023/07/15 14:22:04;;;;;;;11.20;7.50;;;;;;;;;;10498162;28;20037;-74
2023/07/15 14:27:05;;;;;;;13.80;7.32;;;;;;;;;;10499856;28;20008;-74
2023/07/15 14:32:10;;;;;;;9.83;7.03;;;;;;;;;;10507944;28;20040;-74
2023/07/15 14:37:10;;;;;;;10.95;6.57;;;;;;;;;;10506869;28;20039;-73
2023/07/15 14:42:10;;;;;;;15.45;7.15;;;;;;;;;;10508909;28;20222;-75
2023/07/15 14:47:11;;;;;;;15.07;7.82;;;;;;;;;;10507467;28;20050;-74
2023/07/15 14:52:11;;;;;;;13.67;6.43;;;;;;;;;;10493377;28;20060;-73
2023/07/15 14:57:12;;;;;;;12.45;7.10;;;;;;;;;;10481043;28;20227;-73
2023/07/15 15:02:12;;;;;;;16.08;6.85;;;;;;;;;;10496702;28;20024;-76
2023/07/15 15:07:12;;;;;;;13.23;6.80;;;;;;;;;;10496791;28;20242;-75
2023/07/15 15:12:13;;;;;;;10.32;6.25;;;;;;;;;;10483491;28;20077;-74
2023/07/15 15:17:13;;;;;;;16.00;5.68;;;;;;;;;;10480391;28;20084;-74
2023/07/15 15:22:14;;;;;;;13.57;6.00;;;;;;;;;;10480935;28;20223;-75
2023/07/15 15:27:14;;;;;;;15.93;6.70;;;;;;;;;;10467968;28;20033;-75
2023/07/15 15:32:14;;;;;;;10.65;6.00;;;;;;;;;;10474905;28;20036;-75
2023/07/15 15:37:15;;;;;;;9.63;5.97;;;;;;;;;;10486082;28;20032;-75
2023/07/15 15:42:15;;;;;;;10.60;6.20;;;;;;;;;;10483898;28;20032;-76
2023/07/15 15:47:15;;;;;;;12.25;6.00;;;;;;;;;;10478087;28;20025;-74
2023/07/15 15:52:16;;;;;;;11.90;5.97;;;;;;;;;;10493562;28;20064;-74
2023/07/15 15:57:16;;;;;;;11.60;5.80;;;;;;;;;;10494742;28;20302;-75
2023/07/15 16:02:16;;;;;;;9.43;6.72;;;;;;;;;;10493145;28;20028;-73
2023/07/15 16:07:17;;;;;;;12.68;6.22;;;;;;;;;;10491794;28;20321;-74
2023/07/15 16:12:17;;;;;;;9.47;6.67;;;;;;;;;;10491080;28;20035;-73
2023/07/15 16:17:17;;;;;;;10.10;5.72;;;;;;;;;;10492104;28;20150;-74
2023/07/15 16:22:18;;;;;;;11.48;6.15;;;;;;;;;;10494322;28;20028;-69
2023/07/15 16:27:18;;;;;;;9.82;5.88;;;;;;;;;;10495125;28;20024;-69
2023/07/15 16:32:18;;;;;;;10.63;6.18;;;;;;;;;;10494914;28;20083;-70
2023/07/15 16:37:18;;;;;;;12.27;6.18;;;;;;;;;;10494917;28;20307;-69
2023/07/15 16:42:19;;;;;;;9.03;6.43;;;;;;;;;;10493150;28;20032;-69
2023/07/15 16:47:19;;;;;;;13.73;6.38;;;;;;;;;;10489981;28;20113;-70
2023/07/15 16:52:19;;;;;;;13.75;6.80;;;;;;;;;;10490273;28;20036;-69
2023/07/15 16:57:20;;;;;;;16.10;6.72;;;;;;;;;;10491761;28;20125;-70
2023/07/15 17:02:20;;;;;;;12.10;6.60;;;;;;;;;;10490186;28;20400;-70
2023/07/15 17:07:20;;;;;;;14.00;6.70;;;;;;;;;;10494007;28;20040;-70
2023/07/15 17:12:20;;;;;;;16.25;6.78;;;;;;;;;;10488440;28;20084;-70
2023/07/15 17:17:21;;;;;;;12.55;6.38;;;;;;;;;;10487480;28;20337;-70
2023/07/15 17:22:21;;;;;;;17.30;6.97;;;;;;;;;;10487379;28;20025;-71
2023/07/15 17:27:21;;;;;;;12.27;5.55;;;;;;;;;;10491213;28;20048;-70
2023/07/15 17:32:21;;;;;;;13.90;6.50;;;;;;;;;;10493583;28;20456;-70
2023/07/15 17:37:23;;;;;;;12.47;6.57;;;;;;;;;;10492671;28;20128;-69
2023/07/15 17:42:23;;;;;;;10.23;6.32;;;;;;;;;;10487418;28;20311;-71
2023/07/15 17:47:23;;;;;;;11.50;6.80;;;;;;;;;;10490069;28;20028;-71
2023/07/15 17:52:24;;;;;;;10.23;7.53;;;;;;;;;;10491227;28;20048;-77
2023/07/15 17:57:24;;;;;;;12.57;7.27;;;;;;;;;;10493292;28;20258;-76
2023/07/15 18:02:24;;;;;;;11.27;6.88;;;;;;;;;;10491049;28;20017;-76
2023/07/15 18:07:25;;;;;;;11.48;7.43;;;;;;;;;;10492510;28;20255;-75
2023/07/15 18:12:25;;;;;;;9.23;6.73;;;;;;;;;;10487711;28;20032;-73
2023/07/15 18:17:25;;;;;;;17.87;6.87;;;;;;;;;;10483848;28;20028;-74
2023/07/15 18:22:25;;;;;;;8.38;6.30;;;;;;;;;;10483143;28;20063;-73
2023/07/15 18:27:26;;;;;;;11.00;6.60;;;;;;;;;;10484621;28;20326;-73
2023/07/15 18:32:26;;;;;;;16.30;8.07;;;;;;;;;;10483474;28;20028;-74
2023/07/15 18:37:26;;;;;;;12.13;7.18;;;;;;;;;;10486255;28;20047;-68
2023/07/15 18:42:27;;;;;;;12.90;7.18;;;;;;;;;;10486620;28;20091;-68
2023/07/15 18:47:27;;;;;;;26.23;8.25;;;;;;;;;;10485702;28;20147;-69
2023/07/15 18:52:27;;;;;;;18.73;8.50;;;;;;;;;;10480726;28;20051;-68
2023/07/15 18:57:27;;;;;;;13.15;7.70;;;;;;;;;;10481833;28;20043;-68
2023/07/15 19:02:28;;;;;;;10.55;7.10;;;;;;;;;;10480606;28;20365;-71
2023/07/15 19:07:30;;;;;;;14.10;6.70;;;;;;;;;;10484892;28;20040;-71
2023/07/15 19:12:30;;;;;;;10.68;7.72;;;;;;;;;;10484516;28;20322;-71
2023/07/15 19:17:30;;;;;;;12.88;7.85;;;;;;;;;;10487954;28;20028;-71
2023/07/15 19:22:31;;;;;;;9.82;7.75;;;;;;;;;;10492496;28;20243;-70
2023/07/15 19:27:31;;;;;;;8.85;7.35;;;;;;;;;;10496109;28;20027;-72
2023/07/15 19:32:31;;;;;;;15.27;8.60;;;;;;;;;;10496037;28;20101;-75
2023/07/15 19:37:31;;;;;;;13.07;8.75;;;;;;;;;;10495775;28;20061;-71
2023/07/15 19:42:32;;;;;;;14.50;8.77;;;;;;;;;;10496137;28;20501;-72
2023/07/15 19:47:33;;;;;;;18.97;9.27;;;;;;;;;;10496008;28;20012;-74
2023/07/15 19:52:33;;;;;;;10.65;8.40;;;;;;;;;;10493514;28;20337;-75
2023/07/15 19:57:33;;;;;;;14.13;8.07;;;;;;;;;;10492586;28;20327;-72
2023/07/15 20:02:33;;;;;;;15.27;9.35;;;;;;;;;;10496059;28;20307;-73
2023/07/15 20:07:34;;;;;;;12.45;7.88;;;;;;;;;;10495952;28;20035;-73
2023/07/15 20:12:34;;;;;;;11.07;8.20;;;;;;;;;;10495689;28;20259;-72
2023/07/15 20:17:34;;;;;;;12.17;8.07;;;;;;;;;;10486738;28;20036;-72
2023/07/15 20:22:35;;;;;;;12.43;9.52;;;;;;;;;;10486145;28;20032;-74
2023/07/15 20:27:36;;;;;;;16.75;9.25;;;;;;;;;;10489149;28;20409;-73
2023/07/15 20:32:36;;;;;;;15.45;9.05;;;;;;;;;;10478631;28;20598;-73
2023/07/15 20:37:37;;;;;;;14.15;9.18;;;;;;;;;;10476440;28;20055;-73
2023/07/15 20:42:37;;;;;;;14.80;9.27;;;;;;;;;;10496713;28;20036;-73
2023/07/15 20:47:44;;;;;;;20.75;9.82;;;;;;;;;;10478512;28;20226;-73
2023/07/15 20:52:44;;;;;;;12.00;9.20;;;;;;;;;;10460084;28;20190;-73
2023/07/15 20:57:44;;;;;;;17.47;9.73;;;;;;;;;;10473345;28;20055;-73
2023/07/15 21:02:44;;;;;;;16.42;9.35;;;;;;;;;;10478347;28;20337;-73
2023/07/15 21:07:45;;;;;;;18.17;9.90;;;;;;;;;;10459878;28;20021;-73
2023/07/15 21:12:45;;;;;;;16.17;10.13;;;;;;;;;;10488786;28;20292;-72
2023/07/15 21:17:45;;;;;;;18.73;9.37;;;;;;;;;;10475433;28;20086;-72
2023/07/15 21:22:46;;;;;;;19.83;10.35;;;;;;;;;;10460490;28;20095;-73
2023/07/15 21:27:46;;;;;;;18.83;10.07;;;;;;;;;;10461630;28;20343;-73
2023/07/15 21:32:46;;;;;;;15.60;9.90;;;;;;;;;;10458905;28;20062;-73
2023/07/15 21:37:47;;;;;;;17.23;9.65;;;;;;;;;;10471726;28;20212;-73
2023/07/15 21:42:47;;;;;;;16.13;10.48;;;;;;;;;;10458410;28;20056;-73
2023/07/15 21:47:47;;;;;;;16.17;9.75;;;;;;;;;;10458453;28;20307;-73
2023/07/15 21:52:47;;;;;;;19.58;9.18;;;;;;;;;;10473197;28;20044;-73
2023/07/15 21:57:48;;;;;;;24.92;10.50;;;;;;;;;;10478310;28;20207;-74
2023/07/15 22:02:48;;;;;;;15.35;9.88;;;;;;;;;;10457920;28;20017;-73
2023/07/15 22:07:48;;;;;;;17.17;10.25;;;;;;;;;;10476825;28;20016;-73
2023/07/15 22:12:48;;;;;;;16.23;9.77;;;;;;;;;;10470451;28;20043;-73
2023/07/15 22:17:49;;;;;;;17.05;9.95;;;;;;;;;;10499578;28;20086;-73
2023/07/15 22:22:49;;;;;;;17.37;10.10;;;;;;;;;;10491950;28;20353;-73
2023/07/15 22:27:49;;;;;;;15.50;10.25;;;;;;;;;;10497783;28;20064;-72
2023/07/15 22:32:50;;;;;;;19.17;10.48;;;;;;;;;;10495554;28;20023;-72
2023/07/15 22:37:50;;;;;;;23.63;11.23;;;;;;;;;;10495431;28;20017;-73
2023/07/15 22:42:50;;;;;;;17.35;11.10;;;;;;;;;;10495160;28;20346;-72
2023/07/15 22:47:50;;;;;;;16.60;9.80;;;;;;;;;;10497308;28;20016;-71
2023/07/15 22:52:51;;;;;;;17.08;10.48;;;;;;;;;;10505277;28;20037;-72
2023/07/15 22:57:51;;;;;;;20.08;10.52;;;;;;;;;;10505049;28;20016;-73
2023/07/15 23:02:51;;;;;;;14.33;9.40;;;;;;;;;;10505611;28;20021;-72
2023/07/15 23:07:51;;;;;;;17.85;9.88;;;;;;;;;;10505528;28;20020;-71
2023/07/15 23:12:52;;;;;;;17.08;10.15;;;;;;;;;;10505562;28;20030;-72
2023/07/15 23:17:52;;;;;;;15.40;10.38;;;;;;;;;;10506062;28;20236;-73
2023/07/15 23:22:52;;;;;;;19.67;9.40;;;;;;;;;;10493426;28;20226;-73
2023/07/15 23:27:53;;;;;;;15.55;10.75;;;;;;;;;;10479540;28;20017;-74
2023/07/15 23:32:53;;;;;;;15.80;10.52;;;;;;;;;;10493583;28;20048;-72
2023/07/15 23:37:53;;;;;;;16.05;10.65;;;;;;;;;;10463283;28;20047;-74
2023/07/15 23:42:53;;;;;;;15.68;11.00;;;;;;;;;;10463050;28;20024;-74
2023/07/15 23:47:54;;;;;;;13.30;9.67;;;;;;;;;;10477537;28;20025;-74
2023/07/15 23:52:54;;;;;;;13.43;8.85;;;;;;;;;;10478257;28;20048;-74
2023/07/15 23:57:54;;;;;;;21.00;8.80;;;;;;;;;;10465880;28;20033;-74
